Time;durP1;ratioP1;P1;durP2;ratioP2;P2;SDS_P1;SDS_P2;PMS_P1;PMS_P2;Temp;Humidity;BMP_temperature;BMP_pressure;BME280_temperature;BME280_humidity;BME280_pressure;Samples;Min_cycle;Max_cycle;Signal;HPM_P1;HPM_P2
2024/01/09 00:00:54;;;;;;;6.00;3.30;;;21.00;99.90;;;;;;5013622;28;20402;-56
2024/01/09 00:03:20;;;;;;;4.32;3.20;;;20.90;99.90;;;;;;4996643;28;20026;-56
2024/01/09 00:05:46;;;;;;;5.28;3.83;;;20.90;99.90;;;;;;4997633;28;20033;-56
2024/01/09 00:08:12;;;;;;;4.85;3.80;;;20.90;99.90;;;;;;5005570;28;20496;-56
2024/01/09 00:10:38;;;;;;;7.95;3.92;;;20.90;99.90;;;;;;5011201;28;20026;-56
2024/01/09 00:13:04;;;;;;;5.70;3.83;;;20.90;99.90;;;;;;5003211;28;20378;-57
2024/01/09 00:15:30;;;;;;;6.07;3.80;;;20.90;99.90;;;;;;5011360;28;20435;-57
2024/01/09 00:17:57;;;;;;;5.30;3.50;;;20.90;99.90;;;;;;5008267;28;20437;-57
2024/01/09 00:20:23;;;;;;;4.13;3.28;;;20.90;99.90;;;;;;5001519;28;20030;-57
2024/01/09 00:22:50;;;;;;;5.53;3.67;;;20.90;99.90;;;;;;5012465;28;20040;-56
2024/01/09 00:25:18;;;;;;;6.50;3.90;;;20.90;99.90;;;;;;5013133;28;20108;-56
2024/01/09 00:27:44;;;;;;;;;;;20.90;99.90;;;;;;5013326;28;20355;-55
2024/01/09 00:30:10;;;;;;;5.18;3.17;;;20.90;99.90;;;;;;5012969;28;19924;-55
2024/01/09 00:32:36;;;;;;;4.85;3.45;;;20.90;99.90;;;;;;5009438;28;20026;-59
2024/01/09 00:35:03;;;;;;;5.00;3.70;;;20.90;99.90;;;;;;5003458;28;20462;-57
2024/01/09 00:37:29;;;;;;;4.45;3.25;;;20.90;99.90;;;;;;5000323;28;20033;-56
2024/01/09 00:39:54;;;;;;;6.40;3.30;;;20.90;99.90;;;;;;5010130;28;20037;-60
2024/01/09 00:42:20;;;;;;;8.73;3.60;;;20.80;99.90;;;;;;5010242;28;20021;-57
2024/01/09 00:44:46;;;;;;;9.57;3.75;;;20.80;99.90;;;;;;5010218;28;20070;-60
2024/01/09 00:47:12;;;;;;;3.33;2.85;;;20.90;99.90;;;;;;5005143;28;20022;-56
2024/01/09 00:49:38;;;;;;;5.05;3.30;;;20.80;99.90;;;;;;5003578;28;20017;-55
2024/01/09 00:52:04;;;;;;;8.07;3.90;;;20.80;99.90;;;;;;5012566;28;20026;-55
2024/01/09 00:54:30;;;;;;;5.28;4.03;;;20.80;99.90;;;;;;5004612;28;20033;-56
2024/01/09 00:56:56;;;;;;;5.57;3.20;;;20.80;99.90;;;;;;4993809;28;20037;-56
2024/01/09 00:59:21;;;;;;;4.35;3.30;;;20.80;99.90;;;;;;5011470;28;20026;-56
2024/01/09 01:01:50;;;;;;;8.48;3.72;;;20.80;99.90;;;;;;5009022;28;20141;-56
2024/01/09 01:04:17;;;;;;;4.65;3.50;;;20.80;99.90;;;;;;5008868;28;20034;-57
2024/01/09 01:06:44;;;;;;;5.95;3.60;;;20.80;99.90;;;;;;5006560;28;20021;-57
2024/01/09 01:09:11;;;;;;;9.55;3.20;;;20.80;99.90;;;;;;5004685;28;20033;-57
2024/01/09 01:11:37;;;;;;;4.97;3.28;;;20.80;99.90;;;;;;5000102;28;20026;-56
2024/01/09 01:14:03;;;;;;;4.18;3.20;;;20.80;99.90;;;;;;5010130;28;20374;-55
2024/01/09 01:16:29;;;;;;;4.85;3.40;;;20.80;99.90;;;;;;5010182;28;20032;-57
2024/01/09 01:18:55;;;;;;;4.25;3.30;;;20.80;99.90;;;;;;5007005;28;20053;-56
2024/01/09 01:21:22;;;;;;;4.43;3.50;;;20.80;99.90;;;;;;5006914;28;20052;-55
2024/01/09 01:23:47;;;;;;;4.95;3.30;;;20.80;99.90;;;;;;5005756;28;20062;-57
2024/01/09 01:26:14;;;;;;;4.20;3.08;;;20.80;99.90;;;;;;5000522;28;20041;-57
2024/01/09 01:28:40;;;;;;;6.13;3.17;;;20.70;99.90;;;;;;5006594;28;20014;-56
2024/01/09 01:31:06;;;;;;;5.38;3.22;;;20.70;99.90;;;;;;5010421;28;20104;-56
2024/01/09 01:33:32;;;;;;;4.40;3.10;;;20.80;99.90;;;;;;5009167;28;20097;-57
2024/01/09 01:35:57;;;;;;;4.88;3.25;;;20.70;99.90;;;;;;5008337;28;20481;-56
2024/01/09 01:38:23;;;;;;;4.97;3.35;;;20.70;99.90;;;;;;5007926;28;20073;-57
2024/01/09 01:40:49;;;;;;;7.70;3.53;;;20.70;99.90;;;;;;5006496;28;20045;-57
2024/01/09 01:43:15;;;;;;;5.90;2.90;;;20.70;99.90;;;;;;5004128;28;20056;-57
2024/01/09 01:45:40;;;;;;;6.20;3.08;;;20.70;99.90;;;;;;5004333;28;20029;-56
2024/01/09 01:48:07;;;;;;;6.65;4.07;;;20.70;99.90;;;;;;5015261;28;20027;-57
2024/01/09 01:50:34;;;;;;;6.13;3.10;;;20.70;99.90;;;;;;5001333;28;20029;-57
2024/01/09 01:53:02;;;;;;;4.30;2.92;;;20.70;99.90;;;;;;4996688;28;20019;-57
2024/01/09 01:55:29;;;;;;;5.60;3.45;;;20.60;99.90;;;;;;5001628;28;20028;-57
2024/01/09 01:57:57;;;;;;;4.72;2.90;;;20.60;99.90;;;;;;5010213;28;20030;-57
2024/01/09 02:00:26;;;;;;;3.38;2.90;;;20.60;99.90;;;;;;5010634;28;20405;-56
2024/01/09 02:02:53;;;;;;;6.25;3.65;;;20.60;99.90;;;;;;5011526;28;20069;-56
2024/01/09 02:05:22;;;;;;;9.60;3.58;;;20.60;99.90;;;;;;5011386;28;20865;-56
2024/01/09 02:07:50;;;;;;;4.85;3.35;;;20.60;99.90;;;;;;5011642;28;20459;-57
2024/01/09 02:10:19;;;;;;;5.97;3.58;;;20.60;99.90;;;;;;5011598;28;20084;-56
2024/01/09 02:12:46;;;;;;;32.97;3.65;;;20.50;99.90;;;;;;5011746;28;20060;-57
2024/01/09 02:15:11;;;;;;;4.38;2.63;;;20.50;99.90;;;;;;5011830;28;20030;-57
2024/01/09 02:17:38;;;;;;;4.30;2.88;;;20.50;99.90;;;;;;5011663;28;20420;-56
2024/01/09 02:20:07;;;;;;;5.25;3.10;;;20.50;99.90;;;;;;5011754;28;20084;-57
2024/01/09 02:22:34;;;;;;;5.60;2.90;;;20.50;99.90;;;;;;5011675;28;20109;-57
2024/01/09 02:24:59;;;;;;;4.63;2.80;;;20.50;99.90;;;;;;5010557;28;20478;-57
2024/01/09 02:27:44;;;;;;;5.13;3.15;;;20.40;99.90;;;;;;5011759;28;20041;-57
2024/01/09 02:30:10;;;;;;;4.03;3.08;;;20.40;99.90;;;;;;4999381;28;20030;-57
2024/01/09 02:32:36;;;;;;;5.07;2.80;;;20.40;99.90;;;;;;5011851;28;20022;-57
2024/01/09 02:35:02;;;;;;;4.22;3.00;;;20.40;99.90;;;;;;5011492;28;20033;-57
2024/01/09 02:37:28;;;;;;;5.50;3.28;;;20.40;99.90;;;;;;5011795;28;20025;-57
2024/01/09 02:40:00;;;;;;;5.80;3.20;;;20.40;99.90;;;;;;5011450;28;20497;-57
2024/01/09 02:42:29;;;;;;;4.35;3.10;;;20.40;99.90;;;;;;5011751;28;20034;-57
2024/01/09 02:44:55;;;;;;;5.55;3.40;;;20.40;99.90;;;;;;5011390;28;20499;-56
2024/01/09 02:47:22;;;;;;;4.53;2.35;;;20.40;99.90;;;;;;5011854;28;20116;-57
2024/01/09 02:49:47;;;;;;;3.03;2.72;;;20.30;99.90;;;;;;5011659;28;20494;-57
2024/01/09 02:52:14;;;;;;;6.07;3.60;;;20.30;99.90;;;;;;5011657;28;20026;-57
2024/01/09 02:54:40;;;;;;;4.32;2.78;;;20.30;99.90;;;;;;5011563;28;20026;-57
2024/01/09 02:57:05;;;;;;;3.42;2.80;;;20.30;99.90;;;;;;5011362;28;20363;-57
2024/01/09 02:59:31;;;;;;;7.15;3.15;;;20.30;99.90;;;;;;5011374;28;20382;-57
2024/01/09 03:01:57;;;;;;;4.50;3.15;;;20.30;99.90;;;;;;5011749;28;20046;-57
2024/01/09 03:04:23;;;;;;;4.05;2.65;;;20.20;99.90;;;;;;5011573;28;20097;-56
2024/01/09 03:06:48;;;;;;;3.22;2.80;;;20.20;99.90;;;;;;5014939;28;20106;-57
2024/01/09 03:09:16;;;;;;;5.75;3.03;;;20.20;99.90;;;;;;5014949;28;20382;-57
2024/01/09 03:11:41;;;;;;;6.18;3.58;;;20.20;99.90;;;;;;5014855;28;20129;-57
2024/01/09 03:14:07;;;;;;;3.15;2.63;;;20.20;99.90;;;;;;5014959;28;20113;-57
2024/01/09 03:16:33;;;;;;;4.15;2.65;;;20.20;99.90;;;;;;5015049;28;20512;-56
2024/01/09 03:18:59;;;;;;;3.47;2.30;;;20.20;99.90;;;;;;5014708;28;20053;-57
2024/01/09 03:21:24;;;;;;;7.57;2.42;;;20.10;99.90;;;;;;5014802;28;20032;-56
2024/01/09 03:23:50;;;;;;;5.40;2.60;;;20.10;99.90;;;;;;5014991;28;20022;-57
2024/01/09 03:26:16;;;;;;;6.10;2.55;;;20.10;99.90;;;;;;5014544;28;20025;-56
2024/01/09 03:28:42;;;;;;;3.45;2.38;;;20.10;99.90;;;;;;5014654;28;20049;-56
2024/01/09 03:31:08;;;;;;;3.25;2.25;;;20.10;99.90;;;;;;5014711;28;20033;-56
2024/01/09 03:33:33;;;;;;;4.93;2.40;;;20.00;99.90;;;;;;5014934;28;20018;-56
2024/01/09 03:36:04;;;;;;;3.30;2.33;;;20.00;99.90;;;;;;5014414;28;20129;-56
2024/01/09 03:38:30;;;;;;;4.38;2.58;;;20.00;99.90;;;;;;5014557;28;20017;-56
2024/01/09 03:40:56;;;;;;;3.88;2.00;;;20.00;99.90;;;;;;5014287;28;20030;-56
2024/01/09 03:43:21;;;;;;;3.20;2.47;;;20.00;99.90;;;;;;5014255;28;20105;-56
2024/01/09 03:45:47;;;;;;;3.58;2.55;;;19.90;99.90;;;;;;5014331;28;20026;-57
2024/01/09 03:48:13;;;;;;;3.33;2.25;;;19.90;99.90;;;;;;5014237;28;20014;-56
2024/01/09 03:50:39;;;;;;;4.15;2.25;;;19.90;99.90;;;;;;5013007;28;20552;-56
2024/01/09 03:53:05;;;;;;;3.92;2.97;;;19.90;99.90;;;;;;5013115;28;20044;-56
2024/01/09 03:55:30;;;;;;;4.90;2.45;;;19.90;99.90;;;;;;5014169;28;20022;-56
2024/01/09 03:57:56;;;;;;;3.47;2.10;;;19.90;99.90;;;;;;5014076;28;20397;-56
2024/01/09 04:00:22;;;;;;;2.50;1.95;;;19.90;99.90;;;;;;5014319;28;20034;-57
2024/01/09 04:02:48;;;;;;;3.72;2.30;;;19.90;99.90;;;;;;5013963;28;20068;-56
2024/01/09 04:05:13;;;;;;;4.15;2.42;;;19.80;99.90;;;;;;5012638;28;20026;-57
2024/01/09 04:07:39;;;;;;;3.90;2.42;;;19.80;99.90;;;;;;5014014;28;20022;-56
2024/01/09 04:10:05;;;;;;;3.35;2.15;;;19.80;99.90;;;;;;5014057;28;20030;-56
2024/01/09 04:12:31;;;;;;;2.88;2.22;;;19.80;99.90;;;;;;5009897;28;20101;-56
2024/01/09 04:14:57;;;;;;;3.35;1.98;;;19.80;99.90;;;;;;5013851;28;20060;-56
2024/01/09 04:17:23;;;;;;;2.90;2.40;;;19.80;99.90;;;;;;5013670;28;20050;-56
2024/01/09 04:19:49;;;;;;;2.97;2.10;;;19.80;99.90;;;;;;5013772;28;20505;-55
2024/01/09 04:22:14;;;;;;;3.30;2.08;;;19.80;99.90;;;;;;5013772;28;20025;-55
2024/01/09 04:24:40;;;;;;;5.80;1.85;;;19.80;99.90;;;;;;5013511;28;20080;-56
2024/01/09 04:27:06;;;;;;;2.70;1.70;;;19.80;99.90;;;;;;5014076;28;20025;-55
2024/01/09 04:29:32;;;;;;;2.42;1.80;;;19.80;99.90;;;;;;5012288;28;20597;-56
2024/01/09 04:31:57;;;;;;;2.53;1.70;;;19.80;99.90;;;;;;5013387;28;20033;-56
2024/01/09 04:34:23;;;;;;;2.67;2.03;;;19.80;99.90;;;;;;5013404;28;20157;-56
2024/01/09 04:36:49;;;;;;;3.78;1.90;;;19.80;99.90;;;;;;5013396;28;20029;-56
2024/01/09 04:39:15;;;;;;;6.03;2.30;;;19.80;99.90;;;;;;5013188;28;20467;-56
2024/01/09 04:41:40;;;;;;;4.80;2.20;;;19.80;99.90;;;;;;5013067;28;20036;-56
2024/01/09 04:44:06;;;;;;;3.20;1.80;;;19.80;99.90;;;;;;5013404;28;20108;-56
2024/01/09 04:46:32;;;;;;;3.05;1.95;;;19.80;99.90;;;;;;5013012;28;20018;-56
2024/01/09 04:48:58;;;;;;;1.92;1.50;;;19.80;99.90;;;;;;5012020;28;20385;-56
2024/01/09 04:51:23;;;;;;;2.58;1.70;;;19.80;99.90;;;;;;5010123;28;20018;-56
2024/01/09 04:53:49;;;;;;;4.60;2.17;;;19.80;99.90;;;;;;5009513;28;20040;-56
2024/01/09 04:56:16;;;;;;;3.35;1.77;;;19.80;99.90;;;;;;5012099;28;20032;-56
2024/01/09 04:58:41;;;;;;;3.30;1.95;;;19.80;99.90;;;;;;5011855;28;20018;-56
2024/01/09 05:01:11;;;;;;;2.85;1.77;;;19.80;99.90;;;;;;5012021;28;20112;-56
2024/01/09 05:03:37;;;;;;;2.22;1.45;;;19.80;99.90;;;;;;5011368;28;20026;-56
2024/01/09 05:06:03;;;;;;;1.95;1.58;;;19.80;99.90;;;;;;5012038;28;20036;-55
2024/01/09 05:08:29;;;;;;;3.28;1.70;;;19.80;99.90;;;;;;5012754;28;20471;-56
2024/01/09 05:10:54;;;;;;;1.88;1.67;;;19.80;99.90;;;;;;5012749;28;20235;-57
2024/01/09 05:13:20;;;;;;;2.65;1.67;;;19.70;99.90;;;;;;5012930;28;20382;-56
2024/01/09 05:15:46;;;;;;;2.83;1.67;;;19.80;99.90;;;;;;5012644;28;20123;-56
2024/01/09 05:18:12;;;;;;;3.03;1.70;;;19.80;99.90;;;;;;5011403;28;20026;-57
2024/01/09 05:20:38;;;;;;;2.78;1.80;;;19.80;99.90;;;;;;5011648;28;20491;-56
2024/01/09 05:23:03;;;;;;;3.53;2.03;;;19.70;99.90;;;;;;5012633;28;20053;-56
2024/01/09 05:25:29;;;;;;;2.25;1.50;;;19.80;99.90;;;;;;5012722;28;20355;-56
2024/01/09 05:27:56;;;;;;;2.67;1.83;;;19.70;99.90;;;;;;5012048;28;20142;-57
2024/01/09 05:30:21;;;;;;;3.33;1.88;;;19.70;99.90;;;;;;5012767;28;20022;-56
2024/01/09 05:32:47;;;;;;;2.45;1.85;;;19.80;99.90;;;;;;5012424;28;20022;-56
2024/01/09 05:35:13;;;;;;;2.40;1.80;;;19.70;99.90;;;;;;5012470;28;20391;-56
2024/01/09 05:37:39;;;;;;;2.65;1.55;;;19.70;99.90;;;;;;5012412;28;20022;-56
2024/01/09 05:40:06;;;;;;;2.28;1.50;;;19.70;99.90;;;;;;5012481;28;20038;-56
2024/01/09 05:42:31;;;;;;;2.35;1.65;;;19.70;99.90;;;;;;5012423;28;20076;-57
2024/01/09 05:44:57;;;;;;;2.17;1.65;;;19.70;99.90;;;;;;5012182;28;20026;-56
2024/01/09 05:47:23;;;;;;;3.03;1.60;;;19.70;99.90;;;;;;5012317;28;20084;-56
2024/01/09 05:49:49;;;;;;;3.30;2.15;;;19.70;99.90;;;;;;5012076;28;20030;-56
2024/01/09 05:52:14;;;;;;;2.22;1.63;;;19.70;99.90;;;;;;5012257;28;20130;-56
2024/01/09 05:54:45;;;;;;;2.35;1.77;;;19.70;99.90;;;;;;5012238;28;20026;-56
2024/01/09 05:57:11;;;;;;;5.03;1.80;;;19.70;99.90;;;;;;5012001;28;20018;-56
2024/01/09 05:59:37;;;;;;;2.85;1.48;;;19.70;99.90;;;;;;5011046;28;20065;-56
2024/01/09 06:02:03;;;;;;;4.03;1.92;;;19.70;99.90;;;;;;5011792;28;20494;-57
2024/01/09 06:04:28;;;;;;;2.67;1.90;;;19.70;99.90;;;;;;5012069;28;20096;-56
2024/01/09 06:06:54;;;;;;;1.92;1.50;;;19.60;99.90;;;;;;5010604;28;20034;-56
2024/01/09 06:09:20;;;;;;;2.85;1.50;;;19.60;99.90;;;;;;5012285;28;20079;-56
2024/01/09 06:11:47;;;;;;;3.92;1.40;;;19.70;99.90;;;;;;5001059;28;20037;-56
2024/01/09 06:14:13;;;;;;;1.97;1.70;;;19.70;99.90;;;;;;5006690;28;20048;-56
2024/01/09 06:16:39;;;;;;;2.72;1.75;;;19.60;99.90;;;;;;5012049;28;20298;-56
2024/01/09 06:19:05;;;;;;;7.93;1.58;;;19.60;99.90;;;;;;5011998;28;20394;-56
2024/01/09 06:21:30;;;;;;;3.85;1.48;;;19.60;99.90;;;;;;5010786;28;20030;-56
2024/01/09 06:23:56;;;;;;;2.40;1.55;;;19.60;99.90;;;;;;5010673;28;20022;-56
2024/01/09 06:26:22;;;;;;;3.88;1.50;;;19.60;99.90;;;;;;5011999;28;20598;-56
2024/01/09 06:28:48;;;;;;;2.67;1.58;;;19.60;99.90;;;;;;5011798;28;20097;-56
2024/01/09 06:31:13;;;;;;;2.25;1.38;;;19.60;99.90;;;;;;5011536;28;20072;-56
2024/01/09 06:33:39;;;;;;;2.70;1.33;;;19.60;99.90;;;;;;5011878;28;20093;-56
2024/01/09 06:36:05;;;;;;;2.03;1.40;;;19.60;99.90;;;;;;5011846;28;20022;-56
2024/01/09 06:38:31;;;;;;;2.13;1.55;;;19.60;99.90;;;;;;5011850;28;20042;-56
2024/01/09 06:40:58;;;;;;;1.58;1.33;;;19.60;99.90;;;;;;5014056;28;20069;-56
2024/01/09 06:43:24;;;;;;;2.03;1.30;;;19.50;99.90;;;;;;5015509;28;20018;-56
2024/01/09 06:45:50;;;;;;;1.88;1.30;;;19.50;99.90;;;;;;5015532;28;20113;-56
2024/01/09 06:48:16;;;;;;;2.22;1.30;;;19.60;99.90;;;;;;5015156;28;20022;-56
2024/01/09 06:50:42;;;;;;;1.88;1.52;;;19.50;99.90;;;;;;5015456;28;20076;-56
2024/01/09 06:53:07;;;;;;;2.08;1.50;;;19.50;99.90;;;;;;5015429;28;20044;-56
2024/01/09 06:55:33;;;;;;;2.08;1.15;;;19.50;99.90;;;;;;5015497;28;20466;-56
2024/01/09 06:57:59;;;;;;;4.05;2.10;;;19.50;99.90;;;;;;5015182;28;20168;-56
2024/01/09 07:00:25;;;;;;;2.47;1.92;;;19.50;99.90;;;;;;5015134;28;20079;-56
2024/01/09 07:02:51;;;;;;;2.13;1.48;;;19.50;99.90;;;;;;5013751;28;20061;-57
2024/01/09 07:05:16;;;;;;;2.88;1.17;;;19.50;99.90;;;;;;5015034;28;20457;-57
2024/01/09 07:07:42;;;;;;;2.13;1.25;;;19.50;99.90;;;;;;5015232;28;20022;-57
2024/01/09 07:10:08;;;;;;;4.35;1.50;;;19.50;99.90;;;;;;5015250;28;20030;-57
2024/01/09 07:12:35;;;;;;;2.30;1.08;;;19.50;99.90;;;;;;5015118;28;20026;-56
2024/01/09 07:15:00;;;;;;;3.05;1.40;;;19.50;99.90;;;;;;5015045;28;20025;-56
2024/01/09 07:17:26;;;;;;;3.45;1.33;;;19.50;99.90;;;;;;5014796;28;20478;-58
2024/01/09 07:19:52;;;;;;;2.17;1.40;;;19.50;99.90;;;;;;5014879;28;20038;-57
2024/01/09 07:22:18;;;;;;;1.73;1.17;;;19.50;99.90;;;;;;5014946;28;20022;-56
2024/01/09 07:24:44;;;;;;;2.40;1.50;;;19.50;99.90;;;;;;5013269;28;20018;-56
2024/01/09 07:27:09;;;;;;;2.63;1.42;;;19.50;99.90;;;;;;5014869;28;20497;-56
2024/01/09 07:29:35;;;;;;;2.30;1.50;;;19.50;99.90;;;;;;5013637;28;20096;-57
2024/01/09 07:32:01;;;;;;;3.40;1.23;;;19.50;99.90;;;;;;5014540;28;20032;-57
2024/01/09 07:34:27;;;;;;;3.08;1.45;;;19.50;99.90;;;;;;5014627;28;20371;-57
2024/01/09 07:36:53;;;;;;;1.65;1.23;;;19.50;99.90;;;;;;5014712;28;20030;-57
2024/01/09 07:39:18;;;;;;;3.88;1.67;;;19.50;99.90;;;;;;5013307;28;20034;-57
2024/01/09 07:41:44;;;;;;;2.13;1.38;;;19.50;99.90;;;;;;5014289;28;20498;-56
2024/01/09 07:44:10;;;;;;;2.50;1.52;;;19.40;99.90;;;;;;5013174;28;20018;-56
2024/01/09 07:46:36;;;;;;;2.38;1.40;;;19.40;99.90;;;;;;5014569;28;20038;-57
2024/01/09 07:49:02;;;;;;;1.65;1.40;;;19.40;99.90;;;;;;5014388;28;20037;-58
2024/01/09 07:51:27;;;;;;;5.88;1.30;;;19.40;99.90;;;;;;5013723;28;20470;-58
2024/01/09 07:53:53;;;;;;;4.00;1.85;;;19.40;99.90;;;;;;5014448;28;20018;-57
2024/01/09 07:56:19;;;;;;;2.20;1.30;;;19.40;99.90;;;;;;5014234;28;20525;-57
2024/01/09 07:58:46;;;;;;;3.60;1.42;;;19.40;99.90;;;;;;5014221;28;20030;-57
2024/01/09 08:01:12;;;;;;;3.63;1.75;;;19.40;99.90;;;;;;5013801;28;20085;-57
2024/01/09 08:03:40;;;;;;;4.47;1.85;;;19.40;99.90;;;;;;5014272;28;20087;-57
2024/01/09 08:06:16;;;;;;;2.10;1.50;;;19.40;99.90;;;;;;5014292;28;20022;-56
2024/01/09 08:08:42;;;;;;;1.73;1.40;;;19.40;99.90;;;;;;5012604;28;20018;-56
2024/01/09 08:11:09;;;;;;;3.05;1.42;;;19.40;99.90;;;;;;5014111;28;20048;-56
2024/01/09 08:13:35;;;;;;;4.57;1.80;;;19.40;99.90;;;;;;5013145;28;20390;-57
2024/01/09 08:16:01;;;;;;;4.07;1.20;;;19.40;99.90;;;;;;5013700;28;20471;-56
2024/01/09 08:18:28;;;;;;;4.25;1.75;;;19.40;99.90;;;;;;5013748;28;20153;-57
2024/01/09 08:20:53;;;;;;;2.60;1.55;;;19.40;99.90;;;;;;5013523;28;20026;-57
2024/01/09 08:23:21;;;;;;;2.72;1.67;;;19.40;99.90;;;;;;5012480;28;20490;-57
2024/01/09 08:25:46;;;;;;;2.28;1.55;;;19.40;99.90;;;;;;5014069;28;20124;-57
2024/01/09 08:28:12;;;;;;;2.70;1.60;;;19.40;99.90;;;;;;5013594;28;20145;-56
2024/01/09 08:30:38;;;;;;;3.28;1.98;;;19.30;99.90;;;;;;5013658;28;20083;-56
2024/01/09 08:33:04;;;;;;;2.58;1.65;;;19.40;99.90;;;;;;5013463;28;20018;-57
2024/01/09 08:35:30;;;;;;;2.35;1.48;;;19.30;99.90;;;;;;5013606;28;20502;-56
2024/01/09 08:37:56;;;;;;;5.10;1.63;;;19.30;99.90;;;;;;5013312;28;20094;-57
2024/01/09 08:40:22;;;;;;;3.85;1.52;;;19.40;99.90;;;;;;5013341;28;20038;-57
2024/01/09 08:42:48;;;;;;;2.17;1.65;;;19.30;99.90;;;;;;5013455;28;20100;-56
2024/01/09 08:45:16;;;;;;;3.80;1.80;;;19.30;99.90;;;;;;5011834;28;20596;-56
2024/01/09 08:47:42;;;;;;;2.20;1.63;;;19.40;99.90;;;;;;5013221;28;20025;-57
2024/01/09 08:50:08;;;;;;;2.50;1.50;;;19.30;99.90;;;;;;5013224;28;20022;-56
2024/01/09 08:52:35;;;;;;;3.33;1.65;;;19.40;99.90;;;;;;5013156;28;20026;-56
2024/01/09 08:55:03;;;;;;;3.85;1.98;;;19.40;99.90;;;;;;5013008;28;20076;-56
2024/01/09 08:57:29;;;;;;;3.60;1.67;;;19.40;99.90;;;;;;5013110;28;20029;-57
2024/01/09 08:59:56;;;;;;;3.00;1.70;;;19.30;99.90;;;;;;5013058;28;20451;-57
2024/01/09 09:02:22;;;;;;;5.30;2.45;;;19.40;99.90;;;;;;5012337;28;20033;-57
2024/01/09 09:04:48;;;;;;;3.35;2.15;;;19.40;99.90;;;;;;5012957;28;20026;-57
2024/01/09 09:07:15;;;;;;;3.25;2.10;;;19.40;99.90;;;;;;5011482;28;20026;-57
2024/01/09 09:09:42;;;;;;;2.85;1.77;;;19.40;99.90;;;;;;5012770;28;20140;-57
2024/01/09 09:12:08;;;;;;;1.92;1.58;;;19.40;99.90;;;;;;5011501;28;20062;-57
2024/01/09 09:14:34;;;;;;;3.20;2.05;;;19.40;99.90;;;;;;5011575;28;20029;-56
2024/01/09 09:17:00;;;;;;;4.25;2.22;;;19.40;99.90;;;;;;5012692;28;20100;-56
2024/01/09 09:19:27;;;;;;;1.77;1.60;;;19.40;99.90;;;;;;5012637;28;20026;-57
2024/01/09 09:21:53;;;;;;;2.55;1.90;;;19.40;99.90;;;;;;5012666;28;20026;-57
2024/01/09 09:24:19;;;;;;;2.60;2.10;;;19.40;99.90;;;;;;5012480;28;20030;-56
2024/01/09 09:26:45;;;;;;;4.13;2.15;;;19.40;99.90;;;;;;5012516;28;20025;-56
2024/01/09 09:29:10;;;;;;;3.40;2.10;;;19.50;99.90;;;;;;5012560;28;20129;-56
2024/01/09 09:31:36;;;;;;;3.35;2.25;;;19.40;99.90;;;;;;5012559;28;20018;-56
2024/01/09 09:34:02;;;;;;;4.38;2.05;;;19.40;99.90;;;;;;5012388;28;20030;-57
2024/01/09 09:36:28;;;;;;;3.08;1.83;;;19.40;99.90;;;;;;5012300;28;20041;-57
2024/01/09 09:38:53;;;;;;;3.83;1.75;;;19.40;99.90;;;;;;5012424;28;20025;-56
2024/01/09 09:41:23;;;;;;;3.97;2.20;;;19.50;99.90;;;;;;5012010;28;20046;-57
2024/01/09 09:44:03;;;;;;;3.40;2.05;;;19.50;99.90;;;;;;5012300;28;20018;-57
2024/01/09 09:46:31;;;;;;;3.05;2.13;;;19.50;99.90;;;;;;5012263;28;20029;-57
2024/01/09 09:48:57;;;;;;;4.70;2.17;;;19.50;99.90;;;;;;5012244;28;20024;-57
2024/01/09 09:51:24;;;;;;;3.20;1.92;;;19.50;99.90;;;;;;5010780;28;20030;-57
2024/01/09 09:53:52;;;;;;;8.05;2.70;;;19.50;99.90;;;;;;5012083;28;20009;-57
2024/01/09 09:56:19;;;;;;;3.30;1.90;;;19.50;99.90;;;;;;5012098;28;20032;-57
2024/01/09 09:58:44;;;;;;;3.63;2.53;;;19.50;99.90;;;;;;5011905;28;20013;-57
2024/01/09 10:01:13;;;;;;;3.35;2.10;;;19.50;99.90;;;;;;5011699;28;20528;-57
2024/01/09 10:03:54;;;;;;;2.85;2.20;;;19.50;99.90;;;;;;5011832;28;20474;-56
2024/01/09 10:06:21;;;;;;;2.30;1.90;;;19.50;99.90;;;;;;5011818;28;20045;-57
2024/01/09 10:08:49;;;;;;;3.55;2.10;;;19.50;99.90;;;;;;5011907;28;20025;-57
2024/01/09 10:11:15;;;;;;;5.70;2.38;;;19.40;99.90;;;;;;5011903;28;20355;-57
2024/01/09 10:13:42;;;;;;;3.22;2.25;;;19.50;99.90;;;;;;5012263;28;20034;-57
2024/01/09 10:16:08;;;;;;;3.43;2.00;;;19.40;99.90;;;;;;5016117;28;20025;-57
2024/01/09 10:18:35;;;;;;;4.43;2.50;;;19.40;99.90;;;;;;5016088;28;20053;-57
2024/01/09 10:21:02;;;;;;;3.33;2.42;;;19.40;99.90;;;;;;5015480;28;20038;-56
2024/01/09 10:23:28;;;;;;;2.88;2.45;;;19.40;99.90;;;;;;5015669;28;20026;-56
2024/01/09 10:25:55;;;;;;;4.47;2.30;;;19.40;99.90;;;;;;5015675;28;20112;-57
2024/01/09 10:28:21;;;;;;;4.80;2.37;;;19.40;99.90;;;;;;5015718;28;20326;-56
2024/01/09 10:30:47;;;;;;;3.88;2.47;;;19.40;99.90;;;;;;5014308;28;20259;-57
2024/01/09 10:33:14;;;;;;;5.80;2.58;;;19.40;99.90;;;;;;5014534;28;20383;-56
2024/01/09 10:35:41;;;;;;;3.95;2.28;;;19.40;99.90;;;;;;5015695;28;20022;-57
2024/01/09 10:38:09;;;;;;;4.55;2.25;;;19.40;99.90;;;;;;5015722;28;20224;-57
2024/01/09 10:40:36;;;;;;;8.05;2.72;;;19.40;99.90;;;;;;5015684;28;20097;-57
2024/01/09 10:43:02;;;;;;;3.30;2.17;;;19.40;99.90;;;;;;5014121;28;20026;-56
2024/01/09 10:45:30;;;;;;;3.50;2.60;;;19.40;99.90;;;;;;5015590;28;20848;-57
2024/01/09 10:47:58;;;;;;;2.78;2.30;;;19.40;99.90;;;;;;5015300;28;20359;-57
2024/01/09 10:50:25;;;;;;;2.72;1.90;;;19.40;99.90;;;;;;5015628;28;20022;-58
2024/01/09 10:52:52;;;;;;;4.80;2.20;;;19.40;99.90;;;;;;5015444;28;20030;-58
2024/01/09 10:55:19;;;;;;;2.08;1.65;;;19.40;99.90;;;;;;5013912;28;20022;-57
2024/01/09 10:57:47;;;;;;;3.03;2.22;;;19.40;99.90;;;;;;5015333;28;20133;-57
2024/01/09 11:00:14;;;;;;;3.78;2.60;;;19.40;99.90;;;;;;5014992;28;20034;-57
2024/01/09 11:02:40;;;;;;;4.07;2.58;;;19.40;99.90;;;;;;5015018;28;20328;-57
2024/01/09 11:05:13;;;;;;;3.17;2.10;;;19.40;99.90;;;;;;5015197;28;20064;-57
2024/01/09 11:07:43;;;;;;;4.30;2.22;;;19.40;99.90;;;;;;5015099;28;20046;-57
2024/01/09 11:10:19;;;;;;;8.55;2.85;;;19.30;99.90;;;;;;5014871;28;20452;-56
2024/01/09 11:12:49;;;;;;;3.65;2.70;;;19.40;99.90;;;;;;5014909;28;20026;-57
2024/01/09 11:15:23;;;;;;;3.55;2.38;;;19.40;99.90;;;;;;5013674;28;20046;-57
2024/01/09 11:17:54;;;;;;;3.45;2.22;;;19.30;99.90;;;;;;5014793;28;20101;-58
2024/01/09 11:20:20;;;;;;;3.28;2.15;;;19.40;99.90;;;;;;5014717;28;20034;-57
2024/01/09 11:22:46;;;;;;;6.15;2.30;;;19.40;99.90;;;;;;5014573;28;20049;-57
2024/01/09 11:25:20;;;;;;;4.50;2.78;;;19.40;99.90;;;;;;5014188;28;20030;-57
2024/01/09 11:27:50;;;;;;;3.42;2.30;;;19.40;99.90;;;;;;5014115;28;20026;-57
2024/01/09 11:30:22;;;;;;;6.20;2.40;;;19.40;99.90;;;;;;5014682;28;20026;-56
2024/01/09 11:32:49;;;;;;;5.13;2.58;;;19.40;99.90;;;;;;5013270;28;20022;-57
2024/01/09 11:35:17;;;;;;;4.87;2.83;;;19.40;99.90;;;;;;5014655;28;20033;-57
2024/01/09 11:37:48;;;;;;;4.75;2.58;;;19.40;99.90;;;;;;5014605;28;20056;-57
2024/01/09 11:40:19;;;;;;;5.85;3.13;;;19.40;99.90;;;;;;5014432;28;20386;-57
2024/01/09 11:42:52;;;;;;;4.80;2.78;;;19.40;99.90;;;;;;5014600;28;20079;-56
2024/01/09 11:45:23;;;;;;;5.68;2.83;;;19.40;99.90;;;;;;5014046;28;20470;-57
2024/01/09 11:47:49;;;;;;;3.72;2.22;;;19.40;99.90;;;;;;5014142;28;20026;-56
2024/01/09 11:50:15;;;;;;;6.32;3.03;;;19.40;99.90;;;;;;5014149;28;20020;-57
2024/01/09 11:52:43;;;;;;;5.30;2.65;;;19.40;99.90;;;;;;5014158;28;20022;-57
2024/01/09 11:55:10;;;;;;;4.30;3.00;;;19.40;99.90;;;;;;5014089;28;20018;-57
2024/01/09 11:57:39;;;;;;;5.95;2.90;;;19.40;99.90;;;;;;5013259;28;20084;-57
2024/01/09 12:00:06;;;;;;;5.07;2.75;;;19.40;99.90;;;;;;5013806;28;20026;-58
2024/01/09 12:02:36;;;;;;;4.00;2.60;;;19.40;99.90;;;;;;5013828;28;20058;-57
2024/01/09 12:05:06;;;;;;;5.97;3.03;;;19.40;99.90;;;;;;5013894;28;20030;-57
2024/01/09 12:07:33;;;;;;;5.63;2.47;;;19.30;99.90;;;;;;5014019;28;20441;-57
2024/01/09 12:10:03;;;;;;;4.50;2.90;;;19.40;99.90;;;;;;5013891;28;20057;-57
2024/01/09 12:12:29;;;;;;;5.00;3.05;;;19.40;99.90;;;;;;5013547;28;20062;-57
2024/01/09 12:14:56;;;;;;;5.20;2.75;;;19.30;99.90;;;;;;5013812;28;20022;-57
2024/01/09 12:17:41;;;;;;;6.97;2.80;;;19.30;99.90;;;;;;5013485;28;20581;-58
2024/01/09 12:20:10;;;;;;;6.10;2.38;;;19.30;99.90;;;;;;5002638;28;20053;-58
2024/01/09 12:22:36;;;;;;;5.43;3.13;;;19.30;99.90;;;;;;5013687;28;20026;-57
2024/01/09 12:25:03;;;;;;;3.75;3.00;;;19.30;99.90;;;;;;5013536;28;20474;-58
2024/01/09 12:27:30;;;;;;;5.35;2.50;;;19.30;99.90;;;;;;5013527;28;20137;-58
2024/01/09 12:29:56;;;;;;;5.22;3.00;;;19.30;99.90;;;;;;5014255;28;20033;-57
2024/01/09 12:32:22;;;;;;;4.05;2.50;;;19.30;99.90;;;;;;5013484;28;20030;-58
2024/01/09 12:34:49;;;;;;;5.32;2.88;;;19.30;99.90;;;;;;5008988;28;20453;-59
2024/01/09 12:37:15;;;;;;;5.68;3.00;;;19.30;99.90;;;;;;5007761;28;20168;-58
2024/01/09 12:39:41;;;;;;;7.63;3.05;;;19.30;99.90;;;;;;5000667;28;20100;-59
2024/01/09 12:42:08;;;;;;;8.82;3.13;;;19.30;99.90;;;;;;5012114;28;20552;-59
2024/01/09 12:44:37;;;;;;;5.13;2.67;;;19.30;99.90;;;;;;4999734;28;20048;-58